Home > Products > Valid Products > MTR

000
SAUS44 KSHV 311458
MTRAQV
METAR KAQV 311456Z AUTO 02005KT 10SM CLR 29/20 A3004 RMK AO2 SLP168
T02890200 50002





000
SAUS44 KSHV 311456
MTRBKB
METAR KBKB 311454Z AUTO VRB03KT 10SM CLR 27/21 A3001 RMK AO2 SLP189
T02720211 50001





000
SAUS44 KSHV 311357
MTRAQV
METAR KAQV 311356Z AUTO VRB06KT 10SM CLR 26/20 A3004 RMK AO2 SLP170
T02610200





000
SAUS44 KSHV 311355
MTRBKB
METAR KBKB 311354Z AUTO VRB04KT 10SM FEW039 26/21 A3002 RMK AO2
SLP191 T02560206





000
SAUS44 KSHV 311257
MTRAQV
METAR KAQV 311256Z AUTO 02005KT 10SM CLR 24/21 A3004 RMK AO2 SLP167
T02390206





000
SAUS44 KSHV 311255
MTRBKB
METAR KBKB 311254Z AUTO VRB04KT 10SM CLR 24/21 A3002 RMK AO2 SLP190
T02390206





000
SAUS44 KSHV 311157
MTRAQV
METAR KAQV 311156Z AUTO 01006KT 10SM CLR 23/21 A3003 RMK AO2 SLP165
T02330211 10261 20233 53006





000
SAUS44 KSHV 311157
MTRAQV
METAR KAQV 311156Z AUTO 01006KT 10SM CLR 23/21 A3003 RMK AO2 SLP165
T02330211 10261 20233 53006





000
SAUS44 KSHV 311155
MTRBKB
METAR KBKB 311154Z AUTO VRB03KT 10SM CLR 23/21 A3001 RMK AO2 SLP188
T02330211 10250 20233 53008





000
SAUS44 KSHV 311155
MTRBKB
METAR KBKB 311154Z AUTO VRB03KT 10SM CLR 23/21 A3001 RMK AO2 SLP188
T02330211 10250 20233 53008





000
SAUS44 KSHV 311057
MTRAQV
METAR KAQV 311056Z AUTO 01004KT 10SM CLR 24/22 A3002 RMK AO2 SLP162
T02390222





000
SAUS44 KSHV 311057
MTRAQV
METAR KAQV 311056Z AUTO 01004KT 10SM CLR 24/22 A3002 RMK AO2 SLP162
T02390222





000
SAUS44 KSHV 311056
MTRBKB
METAR KBKB 311054Z AUTO VRB03KT 10SM CLR 24/21 A3000 RMK AO2 SLP184
T02390211





000
SAUS44 KSHV 311056
MTRBKB
METAR KBKB 311054Z AUTO VRB03KT 10SM CLR 24/21 A3000 RMK AO2 SLP184
T02390211





000
SAUS44 KSHV 310957
MTRAQV
METAR KAQV 310956Z AUTO 36004KT 6SM BR CLR 24/23 A3001 RMK AO2
SLP157 T02440228





000
SAUS44 KSHV 310955
MTRBKB
METAR KBKB 310954Z AUTO 36003KT 10SM CLR 24/22 A2999 RMK AO2 SLP179
T02440217





000
SAUS44 KSHV 310857
MTRAQV
METAR KAQV 310856Z AUTO 00000KT 6SM BR CLR 24/23 A3001 RMK AO2
SLP158 T02440228 55000





000
SAUS44 KSHV 310855
MTRBKB
METAR KBKB 310854Z AUTO VRB03KT 10SM CLR 25/23 A2999 RMK AO2 SLP178
T02500228 55003





000
SAUS44 KSHV 310855
MTRBKB
METAR KBKB 310854Z AUTO VRB03KT 10SM CLR 25/23 A2999 RMK AO2 SLP178
T02500228 55003





000
SAUS44 KSHV 310757
MTRAQV
METAR KAQV 310756Z AUTO VRB03KT 7SM CLR 25/23 A3001 RMK AO2 SLP159
T02500233





000
SAUS44 KSHV 310755
MTRBKB
METAR KBKB 310754Z AUTO VRB03KT 10SM CLR 25/23 A2998 RMK AO2 SLP177
T02500228





000
SAUS44 KSHV 310657
MTRAQV
METAR KAQV 310656Z AUTO 00000KT 8SM CLR 26/23 A3001 RMK AO2 SLP157
T02560233





000
SAUS44 KSHV 310657
MTRAQV
METAR KAQV 310656Z AUTO 00000KT 8SM CLR 26/23 A3001 RMK AO2 SLP157
T02560233





000
SAUS44 KSHV 310655
MTRBKB
METAR KBKB 310654Z AUTO 00000KT 10SM CLR 24/23 A2999 RMK AO2 SLP180
T02440228





000
SAUS44 KSHV 310557
MTRAQV
METAR KAQV 310556Z AUTO 00000KT 8SM CLR 26/24 A3001 RMK AO2 SLP158
60000 T02610239 10283 20256 403780250 58004





000
SAUS44 KSHV 310557
MTRAQV
METAR KAQV 310556Z AUTO 00000KT 8SM CLR 26/24 A3001 RMK AO2 SLP158
60000 T02610239 10283 20256 403780250 58004





000
SAUS44 KSHV 310555
MTRBKB
METAR KBKB 310554Z AUTO 00000KT 10SM CLR 25/23 A3000 RMK AO2 SLP182
60000 T02500233 10267 20244 403830233 58005





000
SAUS44 KSHV 310555
MTRBKB
METAR KBKB 310554Z AUTO 00000KT 10SM CLR 25/23 A3000 RMK AO2 SLP182
60000 T02500233 10267 20244 403830233 58005





000
SAUS44 KSHV 310457
MTRAQV
METAR KAQV 310456Z AUTO 00000KT 8SM CLR 26/24 A3002 RMK AO2 SLP162
T02560239





000
SAUS44 KSHV 310455
MTRBKB
METAR KBKB 310454Z AUTO 00000KT 10SM CLR 25/24 A3001 RMK AO2 SLP186
T02500239





000
SAUS44 KSHV 310357
MTRAQV
METAR KAQV 310356Z AUTO 00000KT 7SM CLR 26/24 A3002 RMK AO2 SLP162
T02610239





000
SAUS44 KSHV 310355
MTRBKB
METAR KBKB 310354Z AUTO 00000KT 10SM CLR 26/24 A3001 RMK AO2 SLP187
T02560239





000
SAUS44 KSHV 310257
MTRAQV
METAR KAQV 310256Z AUTO 00000KT 10SM CLR 27/23 A3003 RMK AO2 SLP163
60000 T02670233 50012





000
SAUS44 KSHV 310256
MTRBKB
METAR KBKB 310254Z AUTO 00000KT 10SM CLR 26/24 A3001 RMK AO2 SLP186
60000 T02560239 51012





000
SAUS44 KSHV 310256
MTRBKB
METAR KBKB 310254Z AUTO 00000KT 10SM CLR 26/24 A3001 RMK AO2 SLP186
60000 T02560239 51012





000
SAUS44 KSHV 310157
MTRAQV
METAR KAQV 310156Z AUTO 00000KT 10SM CLR 27/24 A3003 RMK AO2 SLP164
T02720239





000
SAUS44 KSHV 310155
MTRBKB
METAR KBKB 310154Z AUTO 00000KT 10SM CLR 26/24 A3001 RMK AO2 SLP186
T02610244





000
SAUS44 KSHV 310057
MTRAQV
METAR KAQV 310056Z AUTO 00000KT 10SM CLR 28/24 A3001 RMK AO2 RAE04
SLP157 P0000 T02780239





000
SAUS44 KSHV 310056
MTRBKB
METAR KBKB 310054Z AUTO 00000KT 10SM CLR 26/24 A2999 RMK AO2 RAE11
SLP182 P0000 T02610239





000
SAUS44 KSHV 310056
MTRBKB
METAR KBKB 310054Z AUTO 00000KT 10SM CLR 26/24 A2999 RMK AO2 RAE11
SLP182 P0000 T02610239





000
SAUS44 KSHV 302357
MTRAQV
METAR KAQV 302356Z AUTO 00000KT 10SM -RA SCT100 28/23 A2999 RMK AO2
RAB36 TSE08B26E42 SLP152 P0000 60000 T02830233 10378 20283 50011





000
SAUS44 KSHV 302357
MTRAQV
METAR KAQV 302356Z AUTO 00000KT 10SM -RA SCT100 28/23 A2999 RMK AO2
RAB36 TSE08B26E42 SLP152 P0000 60000 T02830233 10378 20283 50011





000
SAUS44 KSHV 302355
MTRBKB
METAR KBKB 302354Z AUTO 00000KT 10SM -RA FEW041 FEW120 27/24 A2998
RMK AO2 RAB44 TSE2256B06B25E42 SLP175 P0000 60000 T02670239 10383
20261 50014





000
SAUS44 KSHV 302355
MTRBKB
METAR KBKB 302354Z AUTO 00000KT 10SM -RA FEW041 FEW120 27/24 A2998
RMK AO2 RAB44 TSE2256B06B25E42 SLP175 P0000 60000 T02670239 10383
20261 50014





000
SAUS44 KSHV 302349
MTRAQV
SPECI KAQV 302348Z AUTO 00000KT 10SM -RA FEW100 28/23 A2999 RMK AO2
RAB36 TSE08B26E42 P0000 T02830233





000
SAUS44 KSHV 302333
MTRAQV
SPECI KAQV 302332Z AUTO 00000KT 10SM TS CLR 29/23 A3001 RMK AO2
TSE08B26 T02890233





000
SAUS44 KSHV 302333
MTRAQV
SPECI KAQV 302332Z AUTO 00000KT 10SM TS CLR 29/23 A3001 RMK AO2
TSE08B26 T02890233





000
SAUS44 KSHV 302315
MTRAQV
SPECI KAQV 302314Z AUTO 03003KT 10SM CLR 29/23 A3000 RMK AO2 TSE08
T02890233





000
SAUS44 KSHV 302315
MTRAQV
SPECI KAQV 302314Z AUTO 03003KT 10SM CLR 29/23 A3000 RMK AO2 TSE08
T02890233





000
SAUS44 KSHV 302313
MTRBKB
SPECI KBKB 302312Z AUTO VRB03KT 10SM TS FEW120 27/23 A2999 RMK AO2
TSE2256B06 T02720233





000
SAUS44 KSHV 302313
MTRBKB
SPECI KBKB 302312Z AUTO VRB03KT 10SM TS FEW120 27/23 A2999 RMK AO2
TSE2256B06 T02720233





000
SAUS44 KSHV 302303
MTRBKB
SPECI KBKB 302302Z AUTO 00000KT 10SM CLR 27/23 A2998 RMK AO2 TSE2256
T02720233





000
SAUS44 KSHV 302303
MTRBKB
SPECI KBKB 302302Z AUTO 00000KT 10SM CLR 27/23 A2998 RMK AO2 TSE2256
T02720233





000
SAUS44 KSHV 302257 COR
MTRBKB
METAR KBKB 302254Z AUTO 00000KT 10SM TS CLR 27/23 A2999 RMK AO2
RAB07E30 SLP179 P0000 T02720228





000
SAUS44 KSHV 302257
MTRAQV
METAR KAQV 302256Z AUTO 15003KT 10SM TS CLR 29/24 A3001 RMK AO2
RAE2157B25E42 TSE37B39 SLP160 P0000 T02940239





000
SAUS44 KSHV 302257
MTRAQV
METAR KAQV 302256Z AUTO 15003KT 10SM TS CLR 29/24 A3001 RMK AO2
RAE2157B25E42 TSE37B39 SLP160 P0000 T02940239





000
SAUS44 KSHV 302257 COR
MTRBKB
METAR KBKB 302254Z AUTO 00000KT 10SM TS CLR 27/23 A2999 RMK AO2
RAB07E30 SLP179 P0000 T02720228





000
SAUS44 KSHV 302256 COR
MTRBKB
METAR KBKB 302254Z AUTO 00000KT 10SM TS CLR 27/23 A2999 RMK AO2
RAB07E30 SLP179 P0000 T02720228





000
SAUS44 KSHV 302256 COR
MTRBKB
METAR KBKB 302254Z AUTO 00000KT 10SM TS CLR 27/23 A2999 RMK AO2
RAB07E30 SLP179 P0000 T02720228





000
SAUS44 KSHV 302255
MTRBKB
METAR KBKB 302254Z AUTO 00000KT 10SM TS CLR 27/23 A2999 RMK AO2
RAB07E30 SLP179 P0000 T02720228





000
SAUS44 KSHV 302255
MTRBKB
METAR KBKB 302254Z AUTO 00000KT 10SM TS CLR 27/23 A2999 RMK AO2
RAB07E30 SLP179 P0000 T02720228





000
SAUS44 KSHV 302158
MTRAQV
METAR KAQV 302156Z AUTO 04006KT 10SM -TSRA SCT055 BKN070 BKN120
32/23 A2998 RMK AO2 RAB25 TSB09E31B38 SLP146 P0000 T03170233





000
SAUS44 KSHV 302155
MTRBKB
METAR KBKB 302154Z AUTO 04009G17KT 360V080 10SM TS FEW075 FEW100
SCT120 32/22 A2997 RMK AO2 TSB26B29 SLP172 T03170217





000
SAUS44 KSHV 302145
MTRAQV
SPECI KAQV 302144Z AUTO 03006KT 10SM -TSRA FEW055 BKN075 BKN100
31/24 A2998 RMK AO2 RAB25 TSB09E31B38 P0000 T03060239





000
SAUS44 KSHV 302145
MTRAQV
SPECI KAQV 302144Z AUTO 03006KT 10SM -TSRA FEW055 BKN075 BKN100
31/24 A2998 RMK AO2 RAB25 TSB09E31B38 P0000 T03060239





000
SAUS44 KSHV 302138
MTRAQV
SPECI KAQV 302137Z AUTO 02006KT 9SM -RA SCT050 BKN070 BKN095 31/24
A2998 RMK AO2 RAB25 TSB09E31 P0000 T03060239





000
SAUS44 KSHV 302133
MTRBKB
SPECI KBKB 302132Z AUTO 10SM TS FEW090 SCT110 37/23 A2994 RMK AO2
TSB26B29 T03720228





000
SAUS44 KSHV 302116
MTRAQV
SPECI KAQV 302115Z AUTO 03013G18KT 10SM TS SCT049 SCT065 SCT110
36/23 A2998 RMK AO2 TSB09 T03560228





000
SAUS44 KSHV 302057
MTRAQV
METAR KAQV 302056Z AUTO 00000KT 10SM FEW060 SCT110 37/25 A2996 RMK
AO2 SLP139 T03670250 58026





000
SAUS44 KSHV 302056
MTRBKB
METAR KBKB 302054Z AUTO VRB03KT 10SM CLR 38/22 A2993 RMK AO2 SLP160
T03780217 58025





000
SAUS44 KSHV 301957
MTRAQV
METAR KAQV 301956Z AUTO 00000KT 10SM FEW050 37/23 A2998 RMK AO2
SLP147 T03720228





000
SAUS44 KSHV 301957
MTRAQV
METAR KAQV 301956Z AUTO 00000KT 10SM FEW050 37/23 A2998 RMK AO2
SLP147 T03720228





000
SAUS44 KSHV 301955
MTRBKB
METAR KBKB 301954Z AUTO VRB03KT 10SM CLR 37/22 A2996 RMK AO2 SLP169
T03720222





000
SAUS44 KSHV 301955
MTRBKB
METAR KBKB 301954Z AUTO VRB03KT 10SM CLR 37/22 A2996 RMK AO2 SLP169
T03720222





000
SAUS44 KSHV 301857
MTRAQV
METAR KAQV 301856Z AUTO 04008KT 010V070 10SM FEW055 37/22 A3002 RMK
AO2 SLP159 T03670222





000
SAUS44 KSHV 301855
MTRBKB
METAR KBKB 301854Z AUTO 01007G15KT 340V060 10SM BKN055 BKN090 33/22
A3000 RMK AO2 SLP182 T03330217





000
SAUS44 KSHV 301757
MTRAQV
METAR KAQV 301756Z AUTO 00000KT 10SM SCT050 36/23 A3004 RMK AO2
SLP166 T03560228 10372 20256 58002





000
SAUS44 KSHV 301757
MTRAQV
METAR KAQV 301756Z AUTO 00000KT 10SM SCT050 36/23 A3004 RMK AO2
SLP166 T03560228 10372 20256 58002





000
SAUS44 KSHV 301756
MTRBKB
METAR KBKB 301754Z AUTO 04005KT 10SM SCT055 BKN070 37/23 A3001 RMK
AO2 SLP186 T03670233 10372 20239 58004





000
SAUS44 KSHV 301657
MTRAQV
METAR KAQV 301656Z AUTO 35007KT 320V040 10SM CLR 37/24 A3005 RMK AO2
SLP171 T03670239





000
SAUS44 KSHV 301657
MTRAQV
METAR KAQV 301656Z AUTO 35007KT 320V040 10SM CLR 37/24 A3005 RMK AO2
SLP171 T03670239





000
SAUS44 KSHV 301655
MTRBKB
METAR KBKB 301654Z AUTO 00000KT 10SM SCT050 36/23 A3002 RMK AO2
SLP191 T03610228





000
SAUS44 KSHV 301557
MTRAQV
METAR KAQV 301556Z AUTO VRB03KT 10SM CLR 35/24 A3005 RMK AO2 SLP170
T03500239





000
SAUS44 KSHV 301556 COR
MTRBKB
METAR KBKB 301554Z AUTO VRB03KT 10SM CLR 35/23 A3002 RMK AO2 SLP190
T03500233





000
SAUS44 KSHV 301457
MTRAQV
METAR KAQV 301456Z AUTO VRB04KT 10SM CLR 33/24 A3004 RMK AO2 SLP168
T03330239 51004





000
SAUS44 KSHV 301457
MTRAQV
METAR KAQV 301456Z AUTO VRB04KT 10SM CLR 33/24 A3004 RMK AO2 SLP168
T03330239 51004





000
SAUS44 KSHV 301455
MTRBKB
METAR KBKB 301454Z AUTO VRB04KT 10SM CLR 33/23 A3002 RMK AO2 SLP190
T03330228 50004





000
SAUS44 KSHV 301357
MTRAQV
METAR KAQV 301356Z AUTO 00000KT 9SM CLR 31/24 A3004 RMK AO2 SLP168
T03110239





000
SAUS44 KSHV 301357
MTRAQV
METAR KAQV 301356Z AUTO 00000KT 9SM CLR 31/24 A3004 RMK AO2 SLP168
T03110239





000
SAUS44 KSHV 301355
MTRBKB
METAR KBKB 301354Z AUTO 00000KT 10SM CLR 31/23 A3002 RMK AO2 SLP190
T03110228





000
SAUS44 KSHV 301355
MTRBKB
METAR KBKB 301354Z AUTO 00000KT 10SM CLR 31/23 A3002 RMK AO2 SLP190
T03110228





000
SAUS44 KSHV 301257
MTRAQV
METAR KAQV 301256Z AUTO 00000KT 9SM CLR 29/24 A3004 RMK AO2 SLP166
T02890239





000
SAUS44 KSHV 301255
MTRBKB
METAR KBKB 301254Z AUTO 00000KT 10SM CLR 27/24 A3002 RMK AO2 SLP190
T02720239





000
SAUS44 KSHV 301255
MTRBKB
METAR KBKB 301254Z AUTO 00000KT 10SM CLR 27/24 A3002 RMK AO2 SLP190
T02720239





000
SAUS44 KSHV 301157
MTRAQV
METAR KAQV 301156Z AUTO 00000KT 3SM BR CLR 26/24 A3003 RMK AO2
SLP163 T02560239 10267 20250 53010





000
SAUS44 KSHV 301157
MTRAQV
METAR KAQV 301156Z AUTO 00000KT 3SM BR CLR 26/24 A3003 RMK AO2
SLP163 T02560239 10267 20250 53010





000
SAUS44 KSHV 301155
MTRBKB
METAR KBKB 301154Z AUTO 00000KT 10SM CLR 24/23 A3001 RMK AO2 SLP186
T02390228 10256 20233 53010





000
SAUS44 KSHV 301155
MTRBKB
METAR KBKB 301154Z AUTO 00000KT 10SM CLR 24/23 A3001 RMK AO2 SLP186
T02390228 10256 20233 53010





000
SAUS44 KSHV 301139
MTRAQV
SPECI KAQV 301138Z AUTO 00000KT 3SM BR CLR 25/23 A3002 RMK AO2
T02500233





000
SAUS44 KSHV 301130
MTRAQV
SPECI KAQV 301129Z AUTO 00000KT 2 1/2SM BR CLR 25/23 A3002 RMK AO2
T02500233





000
SAUS44 KSHV 301130
MTRAQV
SPECI KAQV 301129Z AUTO 00000KT 2 1/2SM BR CLR 25/23 A3002 RMK AO2
T02500233





000
SAUS44 KSHV 301058
MTRAQV
METAR KAQV 301056Z AUTO 00000KT 5SM BR CLR 25/23 A3001 RMK AO2
SLP157 T02500233





000
SAUS44 KSHV 301055
MTRBKB
METAR KBKB 301054Z AUTO 00000KT 10SM CLR 24/23 A2999 RMK AO2 SLP181
T02390228





000
SAUS44 KSHV 301050
MTRAQV
SPECI KAQV 301049Z AUTO 00000KT 4SM BR CLR 25/23 A3001 RMK AO2
T02500233





000
SAUS44 KSHV 301050
MTRAQV
SPECI KAQV 301049Z AUTO 00000KT 4SM BR CLR 25/23 A3001 RMK AO2
T02500233





000
SAUS44 KSHV 301044
MTRAQV
SPECI KAQV 301042Z AUTO 00000KT 2 1/2SM BR CLR 25/23 A3001 RMK AO2
T02500233





000
SAUS44 KSHV 301044
MTRAQV
SPECI KAQV 301042Z AUTO 00000KT 2 1/2SM BR CLR 25/23 A3001 RMK AO2
T02500233





000
SAUS44 KSHV 300957
MTRAQV
METAR KAQV 300956Z AUTO 00000KT 7SM CLR 26/24 A3000 RMK AO2 SLP154
T02560239





000
SAUS44 KSHV 300955
MTRBKB
METAR KBKB 300954Z AUTO 00000KT 10SM CLR 24/23 A2999 RMK AO2 SLP178
T02390228





000
SAUS44 KSHV 300857
MTRAQV
METAR KAQV 300856Z AUTO 00000KT 9SM CLR 26/24 A3000 RMK AO2 SLP153
T02610239 58005





000
SAUS44 KSHV 300855
MTRBKB
METAR KBKB 300854Z AUTO 00000KT 10SM CLR 24/23 A2998 RMK AO2 SLP176
T02440228 58007





000
SAUS44 KSHV 300757
MTRAQV
METAR KAQV 300756Z AUTO 00000KT 9SM FEW070 27/24 A3000 RMK AO2
SLP154 T02670239





000
SAUS44 KSHV 300755
MTRBKB
METAR KBKB 300754Z AUTO 00000KT 10SM CLR 25/23 A2999 RMK AO2 SLP179
T02500233





000
SAUS44 KSHV 300657
MTRAQV
METAR KAQV 300656Z AUTO 00000KT 7SM BKN070 27/24 A3001 RMK AO2
SLP158 T02670244





000
SAUS44 KSHV 300657
MTRAQV
METAR KAQV 300656Z AUTO 00000KT 7SM BKN070 27/24 A3001 RMK AO2
SLP158 T02670244





000
SAUS44 KSHV 300655
MTRBKB
METAR KBKB 300654Z AUTO 00000KT 10SM CLR 25/23 A3000 RMK AO2 SLP183
T02500233





000
SAUS44 KSHV 300557
MTRAQV
METAR KAQV 300556Z AUTO 00000KT 9SM CLR 27/24 A3001 RMK AO2 SLP158
T02670239 10344 20267 403780250 50003





000
SAUS44 KSHV 300557
MTRAQV
METAR KAQV 300556Z AUTO 00000KT 9SM CLR 27/24 A3001 RMK AO2 SLP158
T02670239 10344 20267 403780250 50003





000
SAUS44 KSHV 300555
MTRBKB
METAR KBKB 300554Z AUTO 00000KT 10SM CLR 26/23 A3000 RMK AO2 SLP183
T02560228 10339 20256 403720239 50003





000
SAUS44 KSHV 300555
MTRBKB
METAR KBKB 300554Z AUTO 00000KT 10SM CLR 26/23 A3000 RMK AO2 SLP183
T02560228 10339 20256 403720239 50003





000
SAUS44 KSHV 300458
MTRAQV
METAR KAQV 300456Z AUTO 00000KT 9SM FEW075 28/24 A3002 RMK AO2
SLP161 T02780244





000
SAUS44 KSHV 300455
MTRBKB
METAR KBKB 300454Z AUTO 00000KT 10SM FEW080 27/24 A3001 RMK AO2
SLP185 T02670239





000
SAUS44 KSHV 300357
MTRAQV
METAR KAQV 300356Z AUTO 00000KT 10SM FEW085 FEW100 28/24 A3002 RMK
AO2 SLP162 T02830239





000
SAUS44 KSHV 300357
MTRAQV
METAR KAQV 300356Z AUTO 00000KT 10SM FEW085 FEW100 28/24 A3002 RMK
AO2 SLP162 T02830239





000
SAUS44 KSHV 300355
MTRBKB
METAR KBKB 300354Z AUTO 00000KT 10SM CLR 28/23 A3000 RMK AO2 SLP183
T02780233





000
SAUS44 KSHV 300257
MTRAQV
METAR KAQV 300256Z AUTO 00000KT 10SM FEW070 BKN100 29/23 A3000 RMK
AO2 SLP155 T02940228 53011





000
SAUS44 KSHV 300257
MTRAQV
METAR KAQV 300256Z AUTO 00000KT 10SM FEW070 BKN100 29/23 A3000 RMK
AO2 SLP155 T02940228 53011





000
SAUS44 KSHV 300255
MTRBKB
METAR KBKB 300254Z AUTO 00000KT 10SM CLR 29/22 A2999 RMK AO2 SLP180
T02940222 51017





000
SAUS44 KSHV 300157
MTRAQV
METAR KAQV 300156Z AUTO 00000KT 7SM CLR 29/26 A2999 RMK AO2 SLP150
T02940261





000
SAUS44 KSHV 300155
MTRBKB
METAR KBKB 300154Z AUTO 10SM SCT065 29/23 A2998 RMK AO2 SLP176
T02940233





000
SAUS44 KSHV 300155
MTRBKB
METAR KBKB 300154Z AUTO 10SM SCT065 29/23 A2998 RMK AO2 SLP176
T02940233





000
SAUS44 KSHV 300057
MTRAQV
METAR KAQV 300056Z AUTO 00000KT 10SM CLR 31/24 A2998 RMK AO2 SLP148
T03110239





000
SAUS44 KSHV 300055
MTRBKB
METAR KBKB 300054Z AUTO 00000KT 10SM BKN070 32/24 A2996 RMK AO2
SLP170 T03170244





000
SAUS44 KSHV 292357
MTRAQV
METAR KAQV 292356Z AUTO 00000KT 10SM CLR 34/23 A2997 RMK AO2 SLP144
T03440228 10378 20344 55005





000
SAUS44 KSHV 292355
MTRBKB
METAR KBKB 292354Z AUTO 00000KT 10SM FEW070 34/25 A2994 RMK AO2
SLP163 T03390250 10372 20339 56006





000
SAUS44 KSHV 292257
MTRAQV
METAR KAQV 292256Z AUTO 04003KT 10SM CLR 37/21 A2996 RMK AO2 SLP141
T03670206





000
SAUS44 KSHV 292257
MTRAQV
METAR KAQV 292256Z AUTO 04003KT 10SM CLR 37/21 A2996 RMK AO2 SLP141
T03670206





000
SAUS44 KSHV 292255
MTRBKB
METAR KBKB 292254Z AUTO 00000KT 10SM FEW070 36/21 A2994 RMK AO2
SLP164 T03610206





000
SAUS44 KSHV 292255
MTRBKB
METAR KBKB 292254Z AUTO 00000KT 10SM FEW070 36/21 A2994 RMK AO2
SLP164 T03610206





000
SAUS44 KSHV 292157
MTRAQV
METAR KAQV 292156Z AUTO VRB03KT 10SM SCT065 37/20 A2996 RMK AO2
SLP142 T03670200





000
SAUS44 KSHV 292157
MTRAQV
METAR KAQV 292156Z AUTO VRB03KT 10SM SCT065 37/20 A2996 RMK AO2
SLP142 T03670200





000
SAUS44 KSHV 292156
MTRBKB
METAR KBKB 292154Z AUTO VRB03KT 10SM FEW065 SCT085 37/21 A2994 RMK
AO2 SLP163 T03670206





000
SAUS44 KSHV 292156
MTRBKB
METAR KBKB 292154Z AUTO VRB03KT 10SM FEW065 SCT085 37/21 A2994 RMK
AO2 SLP163 T03670206





000
SAUS44 KSHV 292057
MTRAQV
METAR KAQV 292056Z AUTO 00000KT 10SM SCT065 38/20 A2998 RMK AO2
SLP149 T03780200 58019





000
SAUS44 KSHV 292055
MTRBKB
METAR KBKB 292054Z AUTO VRB03KT 10SM BKN060 37/21 A2996 RMK AO2
SLP169 T03670211 58020





000
SAUS44 KSHV 291957
MTRAQV
METAR KAQV 291956Z AUTO VRB03KT 10SM BKN065 37/21 A3001 RMK AO2
SLP156 T03670206





000
SAUS44 KSHV 291956
MTRBKB
METAR KBKB 291954Z AUTO 17003KT 10SM CLR 35/22 A2998 RMK AO2 SLP177
T03500217





000
SAUS44 KSHV 291857
MTRAQV
METAR KAQV 291856Z AUTO 03003KT 10SM FEW055 37/21 A3002 RMK AO2
SLP162 T03670211





000
SAUS44 KSHV 291857
MTRAQV
METAR KAQV 291856Z AUTO 03003KT 10SM FEW055 37/21 A3002 RMK AO2
SLP162 T03670211





000
SAUS44 KSHV 291856
MTRBKB
METAR KBKB 291854Z AUTO VRB03KT 10SM FEW060 36/21 A3000 RMK AO2
SLP184 T03560211





000
SAUS44 KSHV 291757
MTRAQV
METAR KAQV 291756Z AUTO 00000KT 10SM SCT049 34/22 A3004 RMK AO2
SLP168 T03440217 10356 20250 58006





000
SAUS44 KSHV 291757
MTRAQV
METAR KAQV 291756Z AUTO 00000KT 10SM SCT049 34/22 A3004 RMK AO2
SLP168 T03440217 10356 20250 58006





000
SAUS44 KSHV 291755
MTRBKB
METAR KBKB 291754Z AUTO 00000KT 10SM FEW050 36/21 A3002 RMK AO2
SLP190 T03560211 10356 20244 58007





000
SAUS44 KSHV 291657
MTRAQV
METAR KAQV 291656Z AUTO 36004KT 10SM CLR 34/22 A3005 RMK AO2 SLP172
T03440217





000
SAUS44 KSHV 291655
MTRBKB
METAR KBKB 291654Z AUTO 27004KT 10SM CLR 34/21 A3003 RMK AO2 SLP194
T03440211





000
SAUS44 KSHV 291557
MTRAQV
METAR KAQV 291556Z AUTO VRB03KT 10SM CLR 34/23 A3006 RMK AO2 SLP173
T03390233





000
SAUS44 KSHV 291555
MTRBKB
METAR KBKB 291554Z AUTO 00000KT 10SM CLR 34/23 A3004 RMK AO2 SLP195
T03390228





000
SAUS44 KSHV 291457
MTRAQV
METAR KAQV 291456Z AUTO 00000KT 10SM CLR 32/23 A3006 RMK AO2 SLP174
T03170233 50009





000
SAUS44 KSHV 291455
MTRBKB
METAR KBKB 291454Z AUTO VRB03KT 10SM 32/24 A3004 RMK AO2 SLP197
T03170239





000
SAUS44 KSHV 291455
MTRBKB
METAR KBKB 291454Z AUTO VRB03KT 10SM 32/24 A3004 RMK AO2 SLP197
T03170239





000
SAUS44 KSHV 291357
MTRAQV
METAR KAQV 291356Z AUTO VRB03KT 10SM CLR 30/25 A3006 RMK AO2 SLP174
T03000250





000
SAUS44 KSHV 291355
MTRBKB
METAR KBKB 291354Z AUTO VRB03KT 10SM CLR 29/24 A3004 RMK AO2 SLP197
T02940244 $





000
SAUS44 KSHV 291257
MTRAQV
METAR KAQV 291256Z AUTO 00000KT 10SM CLR 27/24 A3005 RMK AO2 SLP171
T02720244





000
SAUS44 KSHV 291257
MTRAQV
METAR KAQV 291256Z AUTO 00000KT 10SM CLR 27/24 A3005 RMK AO2 SLP171
T02720244





000
SAUS44 KSHV 291255
MTRBKB
METAR KBKB 291254Z AUTO 00000KT 10SM CLR 27/25 A3004 RMK AO2 SLP197
T02670250 $





000
SAUS44 KSHV 291157
MTRAQV
METAR KAQV 291156Z AUTO 00000KT 5SM BR CLR 25/24 A3003 RMK AO2
SLP165 T02500239 10261 20250 53010





000
SAUS44 KSHV 291157
MTRAQV
METAR KAQV 291156Z AUTO 00000KT 5SM BR CLR 25/24 A3003 RMK AO2
SLP165 T02500239 10261 20250 53010





000
SAUS44 KSHV 291155
MTRBKB
METAR KBKB 291154Z AUTO 00000KT 10SM CLR 24/23 A3002 RMK AO2 SLP190
T02440233 10256 20239 53012 $





000
SAUS44 KSHV 291057
MTRAQV
METAR KAQV 291056Z AUTO 00000KT 9SM CLR 26/24 A3001 RMK AO2 SLP157
T02560239





000
SAUS44 KSHV 291057
MTRAQV
METAR KAQV 291056Z AUTO 00000KT 9SM CLR 26/24 A3001 RMK AO2 SLP157
T02560239





000
SAUS44 KSHV 291055
MTRBKB
METAR KBKB 291054Z AUTO 00000KT 10SM CLR 24/23 A3000 RMK AO2 SLP182
T02390233 $





000
SAUS44 KSHV 290957
MTRAQV
METAR KAQV 290956Z AUTO 00000KT 7SM CLR 26/23 A3000 RMK AO2 SLP153
T02560233





000
SAUS44 KSHV 290955
MTRBKB
METAR KBKB 290954Z AUTO 00000KT 10SM CLR 24/23 A2998 RMK AO2 SLP177
T02440233 $





000
SAUS44 KSHV 290857
MTRAQV
METAR KAQV 290856Z AUTO 00000KT 7SM CLR 26/24 A3000 RMK AO2 SLP154
T02560239 55000





000
SAUS44 KSHV 290857
MTRAQV
METAR KAQV 290856Z AUTO 00000KT 7SM CLR 26/24 A3000 RMK AO2 SLP154
T02560239 55000





000
SAUS44 KSHV 290855
MTRBKB
METAR KBKB 290854Z AUTO 00000KT 10SM CLR 24/23 A2999 RMK AO2 SLP178
T02440233 58002 $





000
SAUS44 KSHV 290757
MTRAQV
METAR KAQV 290756Z AUTO 00000KT 10SM CLR 26/24 A3000 RMK AO2 SLP153
T02610239





000
SAUS44 KSHV 290755
MTRBKB
METAR KBKB 290754Z AUTO 00000KT 10SM CLR 24/23 A2999 RMK AO2 SLP179
T02440233 $





000
SAUS44 KSHV 290755
MTRBKB
METAR KBKB 290754Z AUTO 00000KT 10SM CLR 24/23 A2999 RMK AO2 SLP179
T02440233 $





000
SAUS44 KSHV 290657
MTRAQV
METAR KAQV 290656Z AUTO 00000KT 10SM CLR 26/24 A3000 RMK AO2 SLP155
T02610239





000
SAUS44 KSHV 290655
MTRBKB
METAR KBKB 290654Z AUTO 00000KT 10SM CLR 24/23 A2999 RMK AO2 SLP180
T02440233 $





000
SAUS44 KSHV 290655
MTRBKB
METAR KBKB 290654Z AUTO 00000KT 10SM CLR 24/23 A2999 RMK AO2 SLP180
T02440233 $





000
SAUS44 KSHV 290557
MTRAQV
METAR KAQV 290556Z AUTO 00000KT 10SM CLR 26/24 A3000 RMK AO2 SLP155
T02560239 10328 20256 403670244 51014





000
SAUS44 KSHV 290557
MTRAQV
METAR KAQV 290556Z AUTO 00000KT 10SM CLR 26/24 A3000 RMK AO2 SLP155
T02560239 10328 20256 403670244 51014





000
SAUS44 KSHV 290555
MTRBKB
METAR KBKB 290554Z AUTO 00000KT 10SM CLR 26/23 A2999 RMK AO2 SLP180
T02560233 10344 20250 403670233 51015 $





000
SAUS44 KSHV 290555
MTRBKB
METAR KBKB 290554Z AUTO 00000KT 10SM CLR 26/23 A2999 RMK AO2 SLP180
T02560233 10344 20250 403670233 51015 $





000
SAUS44 KSHV 290457
MTRAQV
METAR KAQV 290456Z AUTO 00000KT 8SM CLR 26/24 A2999 RMK AO2 SLP151
T02610239





000
SAUS44 KSHV 290455
MTRBKB
METAR KBKB 290454Z AUTO 00000KT 10SM CLR 26/23 A2998 RMK AO2 SLP175
T02560233 $





000
SAUS44 KSHV 290357
MTRAQV
METAR KAQV 290356Z AUTO 00000KT 10SM CLR 27/24 A2997 RMK AO2 SLP145
T02670244





000
SAUS44 KSHV 290355
MTRBKB
METAR KBKB 290354Z AUTO 00000KT 10SM CLR 26/24 A2997 RMK AO2 SLP172
T02610239 $





000
SAUS44 KSHV 290257
MTRAQV
METAR KAQV 290256Z AUTO 00000KT 9SM CLR 28/26 A2996 RMK AO2 SLP141
T02780261 53007





000
SAUS44 KSHV 290257
MTRAQV
METAR KAQV 290256Z AUTO 00000KT 9SM CLR 28/26 A2996 RMK AO2 SLP141
T02780261 53007





000
SAUS44 KSHV 290255
MTRBKB
METAR KBKB 290254Z AUTO 00000KT 10SM CLR 27/24 A2995 RMK AO2 SLP166
T02670239 53010 $





000
SAUS44 KSHV 290157
MTRAQV
METAR KAQV 290156Z AUTO 00000KT 10SM CLR 28/26 A2995 RMK AO2 SLP137
T02830261





000
SAUS44 KSHV 290155
MTRBKB
METAR KBKB 290154Z AUTO 00000KT 10SM CLR 28/24 A2994 RMK AO2 SLP162
T02780244





000
SAUS44 KSHV 290155
MTRBKB
METAR KBKB 290154Z AUTO 00000KT 10SM CLR 28/24 A2994 RMK AO2 SLP162
T02780244





000
SAUS44 KSHV 290057
MTRAQV
METAR KAQV 290056Z AUTO 00000KT 10SM CLR 31/26 A2994 RMK AO2 SLP134
T03060256





000
SAUS44 KSHV 290057
MTRAQV
METAR KAQV 290056Z AUTO 00000KT 10SM CLR 31/26 A2994 RMK AO2 SLP134
T03060256





000
SAUS44 KSHV 290055
MTRBKB
METAR KBKB 290054Z AUTO 00000KT 10SM CLR 29/24 A2993 RMK AO2 SLP159
T02940244





000
SAUS44 KSHV 282357
MTRAQV
METAR KAQV 282356Z AUTO 00000KT 10SM CLR 33/24 A2994 RMK AO2 SLP133
T03280239 10367 20328 56011





000
SAUS44 KSHV 282357
MTRAQV
METAR KAQV 282356Z AUTO 00000KT 10SM CLR 33/24 A2994 RMK AO2 SLP133
T03280239 10367 20328 56011





000
SAUS44 KSHV 282355
MTRBKB
METAR KBKB 282354Z AUTO 00000KT 10SM CLR 34/22 A2992 RMK AO2 SLP155
T03440217 10367 20333 56011





000
SAUS44 KSHV 282355
MTRBKB
METAR KBKB 282354Z AUTO 00000KT 10SM CLR 34/22 A2992 RMK AO2 SLP155
T03440217 10367 20333 56011





000
SAUS44 KSHV 282257
MTRAQV
METAR KAQV 282256Z AUTO 00000KT 10SM CLR 36/22 A2994 RMK AO2 SLP134
T03610217





000
SAUS44 KSHV 282257
MTRAQV
METAR KAQV 282256Z AUTO 00000KT 10SM CLR 36/22 A2994 RMK AO2 SLP134
T03610217





000
SAUS44 KSHV 282256
MTRBKB
METAR KBKB 282254Z AUTO 00000KT 10SM CLR 36/20 A2992 RMK AO2 SLP156
T03610200





000
SAUS44 KSHV 282157
MTRAQV
METAR KAQV 282156Z AUTO VRB03KT 10SM FEW055 36/21 A2995 RMK AO2
SLP139 T03610206





000
SAUS44 KSHV 282157
MTRAQV
METAR KAQV 282156Z AUTO VRB03KT 10SM FEW055 36/21 A2995 RMK AO2
SLP139 T03610206





000
SAUS44 KSHV 282155
MTRBKB
METAR KBKB 282154Z AUTO 00000KT 10SM FEW075 34/21 A2994 RMK AO2
SLP163 T03440211





000
SAUS44 KSHV 282057
MTRAQV
METAR KAQV 282056Z AUTO 00000KT 10SM SCT050 36/21 A2997 RMK AO2
SLP144 T03610211 58009





000
SAUS44 KSHV 282057
MTRAQV
METAR KAQV 282056Z AUTO 00000KT 10SM SCT050 36/21 A2997 RMK AO2
SLP144 T03610211 58009





000
SAUS44 KSHV 282057
MTRBKB
METAR KBKB 282054Z AUTO VRB04KT 10SM SCT060 36/21 A2995 RMK AO2
SLP166 T03560206 58012 $





000
SAUS44 KSHV 282057
MTRBKB
METAR KBKB 282054Z AUTO VRB04KT 10SM SCT060 36/21 A2995 RMK AO2
SLP166 T03560206 58012 $





000
SAUS44 KSHV 281957
MTRAQV
METAR KAQV 281956Z AUTO VRB04KT 10SM BKN048 34/22 A2998 RMK AO2
SLP148 T03440222





000
SAUS44 KSHV 281957
MTRAQV
METAR KAQV 281956Z AUTO VRB04KT 10SM BKN048 34/22 A2998 RMK AO2
SLP148 T03440222





000
SAUS44 KSHV 281956
MTRBKB
METAR KBKB 281954Z AUTO VRB03KT 10SM SCT055 34/22 A2996 RMK AO2
SLP170 T03390217 $





000
SAUS44 KSHV 281857
MTRAQV
METAR KAQV 281856Z AUTO 00000KT 10SM CLR 35/22 A2999 RMK AO2 SLP151
T03500217





000
SAUS44 KSHV 281857
MTRAQV
METAR KAQV 281856Z AUTO 00000KT 10SM CLR 35/22 A2999 RMK AO2 SLP151
T03500217





000
SAUS44 KSHV 281856
MTRBKB
METAR KBKB 281854Z AUTO VRB03KT 10SM FEW055 34/22 A2997 RMK AO2
SLP174 T03440222 $





000
SAUS44 KSHV 281856
MTRBKB
METAR KBKB 281854Z AUTO VRB03KT 10SM FEW055 34/22 A2997 RMK AO2
SLP174 T03440222 $





000
SAUS44 KSHV 281757
MTRAQV
METAR KAQV 281756Z AUTO 00000KT 10SM FEW055 33/22 A3000 RMK AO2
SLP154 T03280222 10339 20250 58005





000
SAUS44 KSHV 281757
MTRAQV
METAR KAQV 281756Z AUTO 00000KT 10SM FEW055 33/22 A3000 RMK AO2
SLP154 T03280222 10339 20250 58005





000
SAUS44 KSHV 281756
MTRBKB
METAR KBKB 281754Z AUTO 00000KT 10SM FEW046 33/22 A2998 RMK AO2
SLP177 T03330222 10344 20233 58006





000
SAUS44 KSHV 281756
MTRBKB
METAR KBKB 281754Z AUTO 00000KT 10SM FEW046 33/22 A2998 RMK AO2
SLP177 T03330222 10344 20233 58006





000
SAUS44 KSHV 281658
MTRAQV
METAR KAQV 281656Z AUTO VRB05KT 10SM FEW036 33/23 A3001 RMK AO2
SLP157 T03330228





000
SAUS44 KSHV 281658
MTRAQV
METAR KAQV 281656Z AUTO VRB05KT 10SM FEW036 33/23 A3001 RMK AO2
SLP157 T03330228





000
SAUS44 KSHV 281656
MTRBKB
METAR KBKB 281654Z AUTO VRB03KT 10SM SCT036 33/23 A2999 RMK AO2
SLP180 T03330228





000
SAUS44 KSHV 281601 COR
MTRAQV
METAR KAQV 281556Z AUTO 00000KT 10SM FEW026 32/23 A3001 RMK AO2
SLP157 T03220228





000
SAUS44 KSHV 281557
MTRAQV
METAR KAQV 281556Z AUTO 00000KT 10SM FEW026 32/23 A3001 RMK AO2
SLP157 T03220228





000
SAUS44 KSHV 281556
MTRBKB
METAR KBKB 281554Z AUTO 00000KT 10SM SCT029 32/23 A2999 RMK AO2
SLP181 T03170233





000
SAUS44 KSHV 281556
MTRBKB
METAR KBKB 281554Z AUTO 00000KT 10SM SCT029 32/23 A2999 RMK AO2
SLP181 T03170233





    US Dept of Commerce
    National Oceanic and Atmospheric Administration
    National Weather Service
    1325 East West Highway
    Silver Spring, MD 20910
    Page Author: NWS Internet Services Team
Disclaimer
Information Quality
Credits
Glossary
Privacy Policy
Freedom of Information Act (FOIA)
About Us
Career Opportunities